Impacts TAF Board
For situational awareness. Not to be used for flight planning purposes.
IDs:

KPEQ - Pecos Muni, TX, US

Issued at 1123 UTC 30 Oct 2020
Updated at 1548 UTC 30 Oct 2020
Potential Impact None Slight Moderate High
Time1535Z 30/16Z 30/17Z 30/18Z 30/19Z 30/20Z 30/21Z 30/22Z 30/23Z 31/00Z 31/01Z 31/02Z 31/03Z 31/04Z>>
Type OBS PRVL PRVL PRVL PRVL PRVL PRVL PRVL PRVL PRVL PRVL PRVL PRVL PRVL
VIS 10 >6 >6 >6 >6 >6 >6 >6 >6 >6 >6 >6 >6 >6
CIG -- -- -- -- -- -- -- -- -- -- -- -- -- --
Cover CLR FEW FEW FEW FEW FEW FEW FEW FEW FEW FEW FEW FEW FEW
FltCat VFR VFR VFR VFR VFR VFR VFR VFR VFR VFR VFR VFR VFR VFR
WX -- -- -- -- -- -- -- -- -- -- -- -- -- --
WDir VRB 10 110 110 110 110 110 110 110 110 110 110 110 110
WSpd 0 4 7 7 7 7 7 7 7 7 7 7 7 7
WGst -- -- -- -- -- -- -- -- -- -- -- -- -- --
Raw TAF
KPEQ 301123Z 3012/3112 01004KT P6SM FEW250
  FM301700 11007KT P6SM FEW250


Raw METAR
KPEQ 301535Z AUTO 00000KT 10SM CLR 08/00 A3033 RMK AO2 T00800002
KPEQ 301515Z AUTO 00000KT 10SM CLR 07/00 A3033 RMK AO2 T00660000
KPEQ 301455Z AUTO 00000KT 10SM CLR 06/00 A3032 RMK AO2 T00550000
KPEQ 301435Z AUTO 00000KT 10SM CLR 05/00 A3032 RMK AO2 T00461005
KPEQ 301415Z AUTO 30003KT 10SM CLR 04/M01 A3032 RMK AO2 T00361010
KPEQ 301355Z AUTO 00000KT 10SM CLR 02/M01 A3031 RMK AO2 T00241015
KPEQ 301335Z AUTO 00000KT 10SM CLR 02/M02 A3031 RMK AO2 T00171018
KPEQ 301315Z AUTO 00000KT 10SM CLR 01/M02 A3030 RMK AO2 T00131020
KPEQ 301255Z AUTO 00000KT 10SM CLR 01/M02 A3030 RMK AO2 T00061025
KPEQ 301235Z AUTO 00000KT 10SM CLR 01/M03 A3029 RMK AO2 T00071026

METAR Board
Radar Display
Forecast Discussion
For situational awareness. Not to be used for flight planning purposes.